createdAt,value
2023-04-29T00:00:06.850Z,10.85
2023-04-29T00:02:33.664Z,10.76
2023-04-29T00:05:00.626Z,10.84
2023-04-29T00:07:27.275Z,10.64
2023-04-29T00:09:53.884Z,10.78
2023-04-29T00:12:20.452Z,10.74
2023-04-29T00:14:46.859Z,10.68
2023-04-29T00:17:13.313Z,10.72
2023-04-29T00:19:39.808Z,10.69
2023-04-29T00:22:06.245Z,10.70
2023-04-29T00:24:32.727Z,10.69
2023-04-29T00:26:59.437Z,10.70
2023-04-29T00:29:26.065Z,10.69
2023-04-29T00:31:52.544Z,10.65
2023-04-29T00:34:19.012Z,10.66
2023-04-29T00:36:45.603Z,10.64
2023-04-29T00:39:15.240Z,10.62
2023-04-29T00:41:42.632Z,10.38
2023-04-29T00:44:10.006Z,10.50
2023-04-29T00:46:36.877Z,10.53
2023-04-29T00:49:03.956Z,10.41
2023-04-29T00:51:30.833Z,10.48
2023-04-29T00:53:57.569Z,10.41
2023-04-29T00:56:24.638Z,10.45
2023-04-29T00:58:52.582Z,10.25
2023-04-29T01:01:20.213Z,10.13
2023-04-29T01:03:46.981Z,10.20
2023-04-29T01:06:51.225Z,10.41
2023-04-29T01:09:41.250Z,10.34
2023-04-29T01:12:26.297Z,10.36
2023-04-29T01:15:22.827Z,10.36
2023-04-29T01:17:55.239Z,10.29
2023-04-29T01:20:23.495Z,10.19
2023-04-29T01:22:49.956Z,10.11
2023-04-29T01:25:16.438Z,10.22
2023-04-29T01:28:05.447Z,10.22
2023-04-29T01:30:39.708Z,10.21
2023-04-29T01:33:21.320Z,10.21
2023-04-29T01:35:57.283Z,10.21
2023-04-29T01:38:33.645Z,10.21
2023-04-29T01:41:15.598Z,10.23
2023-04-29T01:43:44.419Z,10.25
2023-04-29T01:46:11.716Z,10.13
2023-04-29T01:48:38.386Z,10.23
2023-04-29T01:51:07.110Z,10.23
2023-04-29T01:53:33.658Z,10.13
2023-04-29T01:56:00.562Z,10.10
2023-04-29T01:58:28.053Z,9.91
2023-04-29T02:00:55.375Z,10.23
2023-04-29T02:03:22.212Z,10.26
2023-04-29T02:05:50.525Z,10.22
2023-04-29T02:08:18.232Z,10.02
2023-04-29T02:10:54.761Z,10.25
2023-04-29T02:13:21.527Z,10.22
2023-04-29T02:15:47.999Z,9.84
2023-04-29T02:18:14.461Z,10.19
2023-04-29T02:20:41.647Z,10.16
2023-04-29T02:23:10.419Z,10.05
2023-04-29T02:25:37.230Z,9.90
2023-04-29T02:28:03.742Z,10.16
2023-04-29T02:30:30.644Z,10.21
2023-04-29T02:32:57.215Z,10.12
2023-04-29T02:35:23.713Z,10.17
2023-04-29T02:37:50.083Z,10.17
2023-04-29T02:40:16.709Z,10.15
2023-04-29T02:42:43.121Z,10.01
2023-04-29T02:45:10.129Z,10.15
2023-04-29T02:47:36.734Z,10.12
2023-04-29T02:50:04.804Z,10.00
2023-04-29T02:52:31.271Z,10.14
2023-04-29T02:54:57.949Z,10.13
2023-04-29T02:57:24.486Z,10.13
2023-04-29T02:59:51.495Z,10.11
2023-04-29T03:02:18.523Z,10.11
2023-04-29T03:04:45.284Z,9.99
2023-04-29T03:07:11.858Z,9.85
2023-04-29T03:09:38.398Z,10.08
2023-04-29T03:12:05.133Z,10.08
2023-04-29T03:14:31.719Z,10.06
2023-04-29T03:16:58.355Z,10.05
2023-04-29T03:19:25.211Z,9.98
2023-04-29T03:21:53.381Z,10.01
2023-04-29T03:24:20.494Z,9.99
2023-04-29T03:26:47.538Z,10.00
2023-04-29T03:29:13.912Z,9.80
2023-04-29T03:31:40.481Z,9.70
2023-04-29T03:34:07.004Z,9.95
2023-04-29T03:36:33.446Z,9.93
2023-04-29T03:39:00.071Z,9.94
2023-04-29T03:41:26.576Z,9.96
2023-04-29T03:43:53.081Z,9.93
2023-04-29T03:46:19.571Z,9.85
2023-04-29T03:48:46.255Z,9.88
2023-04-29T03:51:13.386Z,9.93
2023-04-29T03:53:40.286Z,9.80
2023-04-29T03:56:07.052Z,9.90
2023-04-29T03:58:33.562Z,9.91
2023-04-29T04:01:00.145Z,9.75
2023-04-29T04:03:28.173Z,9.94
2023-04-29T04:05:55.094Z,9.73
2023-04-29T04:08:21.524Z,9.93
2023-04-29T04:10:48.044Z,9.93
2023-04-29T04:13:14.480Z,9.94
2023-04-29T04:15:42.322Z,9.94
2023-04-29T04:18:09.055Z,9.93
2023-04-29T04:20:38.325Z,9.80
2023-04-29T04:23:04.806Z,9.91
2023-04-29T04:25:31.379Z,9.89
2023-04-29T04:27:57.973Z,9.85
2023-04-29T04:30:24.427Z,9.68
2023-04-29T04:32:50.878Z,9.86
2023-04-29T04:35:17.313Z,9.92
2023-04-29T04:37:43.716Z,9.98
2023-04-29T04:40:11.964Z,9.87
2023-04-29T04:42:38.476Z,9.95
2023-04-29T04:45:05.634Z,10.01
2023-04-29T04:47:32.203Z,9.74
2023-04-29T04:49:58.623Z,10.01
2023-04-29T04:52:25.079Z,10.03
2023-04-29T04:54:51.661Z,10.03
2023-04-29T04:57:18.069Z,9.98
2023-04-29T04:59:44.545Z,10.05
2023-04-29T05:02:11.224Z,10.05
2023-04-29T05:04:37.709Z,10.06
2023-04-29T05:07:04.309Z,9.99
2023-04-29T05:09:30.887Z,10.17
2023-04-29T05:11:59.171Z,10.12
2023-04-29T05:14:26.550Z,10.29
2023-04-29T05:16:53.468Z,10.15
2023-04-29T05:19:20.151Z,10.16
2023-04-29T05:21:46.552Z,10.42
2023-04-29T05:24:12.980Z,10.45
2023-04-29T05:26:39.461Z,10.45
2023-04-29T05:29:06.051Z,10.51
2023-04-29T05:31:33.458Z,10.44
2023-04-29T05:33:59.990Z,10.39
2023-04-29T05:36:28.061Z,10.58
2023-04-29T05:38:54.640Z,10.62
2023-04-29T05:41:21.387Z,10.63
2023-04-29T05:43:47.793Z,10.64
2023-04-29T05:46:14.252Z,10.58
2023-04-29T05:48:40.813Z,10.66
2023-04-29T05:51:07.298Z,10.71
2023-04-29T05:53:33.770Z,10.78
2023-04-29T05:56:00.300Z,10.84
2023-04-29T05:58:26.753Z,10.92
2023-04-29T06:00:53.151Z,10.97
2023-04-29T06:03:19.713Z,11.06
2023-04-29T06:05:46.516Z,11.12
2023-04-29T06:08:13.547Z,11.13
2023-04-29T06:10:39.939Z,11.20
2023-04-29T06:13:06.351Z,11.22
2023-04-29T06:15:32.942Z,11.23
2023-04-29T06:17:59.499Z,11.37
2023-04-29T06:20:26.016Z,11.46
2023-04-29T06:22:52.503Z,11.53
2023-04-29T06:25:18.941Z,11.52
2023-04-29T06:27:45.431Z,11.58
2023-04-29T06:30:12.355Z,11.61
2023-04-29T06:32:41.885Z,11.77
2023-04-29T06:35:08.848Z,11.82
2023-04-29T06:37:37.750Z,11.58
2023-04-29T06:40:05.466Z,11.84
2023-04-29T06:42:31.916Z,11.86
2023-04-29T06:44:58.511Z,11.87
2023-04-29T06:47:24.993Z,11.89
2023-04-29T06:49:53.113Z,11.89
2023-04-29T06:52:19.769Z,11.88
2023-04-29T06:54:46.296Z,11.89
2023-04-29T06:57:12.748Z,11.76
2023-04-29T06:59:39.211Z,11.93
2023-04-29T07:02:06.366Z,11.98
2023-04-29T07:04:32.907Z,12.04
2023-04-29T07:06:59.624Z,12.10
2023-04-29T07:09:27.605Z,12.19
2023-04-29T07:11:54.896Z,12.19
2023-04-29T07:14:22.505Z,12.23
2023-04-29T07:16:53.520Z,12.44
2023-04-29T07:19:20.118Z,12.55
2023-04-29T07:21:46.643Z,12.56
2023-04-29T07:24:13.048Z,12.75
2023-04-29T07:26:39.432Z,12.78
2023-04-29T07:29:05.976Z,12.84
2023-04-29T07:31:34.359Z,13.01
2023-04-29T07:34:03.091Z,13.04
2023-04-29T07:36:29.571Z,12.83
2023-04-29T07:38:56.391Z,13.03
2023-04-29T07:41:22.911Z,12.95
2023-04-29T07:43:49.483Z,13.31
2023-04-29T07:46:18.303Z,13.25
2023-04-29T07:48:45.905Z,13.36
2023-04-29T07:51:15.674Z,13.48
2023-04-29T07:53:42.245Z,13.35
2023-04-29T07:56:09.143Z,13.77
2023-04-29T07:58:35.793Z,13.56
2023-04-29T08:01:12.108Z,13.89
2023-04-29T08:03:41.663Z,13.99
2023-04-29T08:06:08.715Z,14.10
2023-04-29T08:08:35.394Z,14.16
2023-04-29T08:11:01.899Z,14.24
2023-04-29T08:13:28.305Z,14.28
2023-04-29T08:15:54.973Z,14.29
2023-04-29T08:18:21.652Z,14.31
2023-04-29T08:20:49.501Z,14.35
2023-04-29T08:23:15.960Z,14.23
2023-04-29T08:25:43.905Z,14.21
2023-04-29T08:28:11.335Z,14.04
2023-04-29T08:30:41.592Z,14.15
2023-04-29T08:33:08.932Z,13.99
2023-04-29T08:35:39.018Z,14.09
2023-04-29T08:38:06.779Z,14.11
2023-04-29T08:40:42.488Z,14.20
2023-04-29T08:43:10.360Z,14.18
2023-04-29T08:45:37.704Z,14.01
2023-04-29T08:48:06.695Z,14.37
2023-04-29T08:50:39.621Z,14.45
2023-04-29T08:53:08.042Z,14.53
2023-04-29T08:55:37.016Z,14.41
2023-04-29T08:58:03.697Z,14.45
2023-04-29T09:00:32.550Z,14.55
2023-04-29T09:03:01.260Z,14.42
2023-04-29T09:05:28.741Z,14.63
2023-04-29T09:07:59.598Z,14.71
2023-04-29T09:10:26.864Z,14.75
2023-04-29T09:12:57.501Z,14.82
2023-04-29T09:15:24.249Z,14.98
2023-04-29T09:17:50.676Z,14.87
2023-04-29T09:20:20.125Z,15.31
2023-04-29T09:22:50.797Z,15.53
2023-04-29T09:25:17.725Z,15.81
2023-04-29T09:27:44.255Z,16.17
2023-04-29T09:30:12.509Z,16.26
2023-04-29T09:32:39.557Z,16.84
2023-04-29T09:35:21.325Z,17.08
2023-04-29T09:37:48.105Z,17.28
2023-04-29T09:40:31.633Z,17.52
2023-04-29T09:42:58.863Z,17.66
2023-04-29T09:45:39.668Z,17.95
2023-04-29T09:48:08.530Z,18.08
2023-04-29T09:50:37.215Z,18.21
2023-04-29T09:53:04.745Z,18.29
2023-04-29T09:55:32.009Z,18.34
2023-04-29T09:57:58.479Z,18.40
2023-04-29T10:00:28.132Z,18.27
2023-04-29T10:02:58.397Z,18.53
2023-04-29T10:05:28.206Z,18.26
2023-04-29T10:07:56.700Z,18.43
2023-04-29T10:10:24.512Z,18.56
2023-04-29T10:12:53.974Z,18.47
2023-04-29T10:15:33.598Z,18.72
2023-04-29T10:18:12.512Z,18.64
2023-04-29T10:20:45.846Z,18.82
2023-04-29T10:23:14.232Z,18.82
2023-04-29T10:25:44.157Z,19.13
2023-04-29T10:28:16.189Z,19.04
2023-04-29T10:30:44.492Z,19.42
2023-04-29T10:33:16.761Z,19.52
2023-04-29T10:35:54.073Z,19.25
2023-04-29T10:38:28.622Z,18.67
2023-04-29T10:40:58.328Z,19.66
2023-04-29T10:43:26.393Z,19.64
2023-04-29T10:46:18.976Z,19.60
2023-04-29T10:48:50.281Z,18.87
2023-04-29T10:51:31.542Z,19.50
2023-04-29T10:54:03.489Z,19.43
2023-04-29T10:56:39.303Z,19.38
2023-04-29T10:59:06.228Z,19.36
2023-04-29T11:01:49.976Z,19.48
2023-04-29T11:04:18.726Z,19.44
2023-04-29T11:06:57.429Z,19.58
2023-04-29T11:09:23.872Z,19.62
2023-04-29T11:11:58.248Z,19.69
2023-04-29T11:14:27.440Z,19.69
2023-04-29T11:16:57.904Z,19.61
2023-04-29T11:19:27.000Z,19.87
2023-04-29T11:22:13.100Z,20.07
2023-04-29T11:25:19.925Z,20.25
2023-04-29T11:27:49.039Z,20.19
2023-04-29T11:30:16.791Z,20.12
2023-04-29T11:32:43.412Z,20.27
2023-04-29T11:35:18.338Z,20.16
2023-04-29T11:37:47.116Z,20.24
2023-04-29T11:40:16.731Z,20.39
2023-04-29T11:42:49.810Z,20.22
2023-04-29T11:45:20.400Z,20.55
2023-04-29T11:47:48.393Z,20.47
2023-04-29T11:50:17.827Z,20.55
2023-04-29T11:52:46.867Z,20.23
2023-04-29T11:55:14.538Z,20.03
2023-04-29T11:57:41.014Z,20.01
2023-04-29T12:00:14.454Z,20.00
2023-04-29T12:02:46.231Z,20.08
2023-04-29T12:05:13.857Z,20.29
2023-04-29T12:07:40.473Z,20.55
2023-04-29T12:10:11.539Z,20.79
2023-04-29T12:12:40.954Z,20.90
2023-04-29T12:15:10.092Z,20.94
2023-04-29T12:17:37.454Z,21.07
2023-04-29T12:20:04.443Z,20.94
2023-04-29T12:22:32.120Z,20.92
2023-04-29T12:24:58.734Z,20.86
2023-04-29T12:27:26.566Z,20.84
2023-04-29T12:29:53.149Z,20.80
2023-04-29T12:32:23.953Z,20.59
2023-04-29T12:34:53.719Z,20.58
2023-04-29T12:37:22.524Z,20.50
2023-04-29T12:39:50.412Z,20.36
2023-04-29T12:42:17.209Z,20.32
2023-04-29T12:44:48.092Z,20.31
2023-04-29T12:47:16.354Z,20.27
2023-04-29T12:49:48.132Z,20.16
2023-04-29T12:52:14.862Z,20.30
2023-04-29T12:54:44.839Z,20.04
2023-04-29T12:57:12.235Z,19.76
2023-04-29T12:59:40.725Z,19.99
2023-04-29T13:02:07.673Z,19.90
2023-04-29T13:04:34.220Z,19.84
2023-04-29T13:07:01.005Z,19.77
2023-04-29T13:09:27.744Z,19.80
2023-04-29T13:11:54.730Z,19.76
2023-04-29T13:14:21.751Z,19.81
2023-04-29T13:16:48.750Z,19.60
2023-04-29T13:19:32.147Z,19.67
2023-04-29T13:22:01.953Z,19.74
2023-04-29T13:24:28.368Z,19.61
2023-04-29T13:26:54.920Z,19.58
2023-04-29T13:29:21.334Z,19.51
2023-04-29T13:31:48.177Z,19.52
2023-04-29T13:34:14.722Z,19.42
2023-04-29T13:36:41.285Z,19.49
2023-04-29T13:39:07.690Z,19.45
2023-04-29T13:41:35.647Z,19.41
2023-04-29T13:44:02.708Z,19.45
2023-04-29T13:46:31.500Z,19.53
2023-04-29T13:49:22.868Z,19.63
2023-04-29T13:57:37.294Z,19.66
2023-04-29T13:59:42.146Z,19.67
2023-04-29T14:04:43.968Z,19.59
2023-04-29T14:07:10.507Z,19.42
2023-04-29T14:09:36.875Z,19.46
2023-04-29T14:12:03.347Z,19.56
2023-04-29T14:14:29.753Z,19.46
2023-04-29T14:16:56.180Z,19.45
2023-04-29T14:19:22.715Z,19.49
2023-04-29T14:21:49.141Z,19.26
2023-04-29T14:24:15.863Z,19.46
2023-04-29T14:26:43.178Z,19.55
2023-04-29T14:29:09.692Z,19.57
2023-04-29T14:31:38.225Z,19.41
2023-04-29T14:34:05.010Z,19.47
2023-04-29T14:36:34.490Z,19.49
2023-04-29T14:39:01.168Z,19.48
2023-04-29T14:41:28.464Z,19.45
2023-04-29T14:43:55.015Z,19.44
2023-04-29T14:46:22.448Z,19.21
2023-04-29T14:48:49.508Z,18.94
2023-04-29T14:51:15.939Z,19.08
2023-04-29T14:53:43.076Z,18.81
2023-04-29T14:56:09.548Z,18.65
2023-04-29T14:58:36.041Z,18.34
2023-04-29T15:01:09.620Z,18.25
2023-04-29T15:03:43.499Z,17.97
2023-04-29T15:06:11.578Z,18.04
2023-04-29T15:08:38.463Z,17.85
2023-04-29T15:11:05.072Z,17.55
2023-04-29T15:13:33.711Z,17.70
2023-04-29T15:16:00.336Z,17.59
2023-04-29T15:18:27.002Z,17.77
2023-04-29T15:20:53.768Z,17.68
2023-04-29T15:23:20.648Z,17.43
2023-04-29T15:25:47.402Z,17.48
2023-04-29T15:28:13.909Z,17.36
2023-04-29T15:30:40.487Z,17.08
2023-04-29T15:33:07.413Z,17.08
2023-04-29T15:35:34.698Z,16.91
2023-04-29T15:38:01.155Z,16.61
2023-04-29T15:40:27.696Z,16.66
2023-04-29T15:42:54.144Z,16.54
2023-04-29T15:45:20.654Z,16.15
2023-04-29T15:47:47.445Z,16.19
2023-04-29T15:50:13.978Z,16.21
2023-04-29T15:52:40.541Z,16.05
2023-04-29T15:55:07.293Z,15.73
2023-04-29T15:57:34.727Z,16.22
2023-04-29T16:00:01.420Z,16.34
2023-04-29T16:02:28.369Z,16.39
2023-04-29T16:04:54.820Z,16.44
2023-04-29T16:07:21.264Z,16.48
2023-04-29T16:09:47.854Z,16.46
2023-04-29T16:12:14.424Z,16.38
2023-04-29T16:14:40.893Z,16.29
2023-04-29T16:17:07.822Z,16.20
2023-04-29T16:19:37.595Z,16.20
2023-04-29T16:22:04.693Z,16.23
2023-04-29T16:24:34.090Z,16.19
2023-04-29T16:27:01.528Z,16.13
2023-04-29T16:29:28.104Z,16.35
2023-04-29T16:31:54.809Z,16.60
2023-04-29T16:34:21.289Z,16.73
2023-04-29T16:36:48.010Z,16.76
2023-04-29T16:39:14.502Z,16.72
2023-04-29T16:41:41.625Z,16.38
2023-04-29T16:44:08.896Z,16.33
2023-04-29T16:46:36.093Z,16.32
2023-04-29T16:49:02.939Z,16.32
2023-04-29T16:51:29.352Z,16.23
2023-04-29T16:53:55.963Z,16.32
2023-04-29T16:56:22.515Z,16.32
2023-04-29T16:58:49.538Z,16.29
2023-04-29T17:01:16.409Z,16.20
2023-04-29T17:03:43.067Z,16.16
2023-04-29T17:06:09.686Z,16.09
2023-04-29T17:08:36.311Z,16.16
2023-04-29T17:11:04.850Z,16.15
2023-04-29T17:13:31.791Z,15.99
2023-04-29T17:15:58.461Z,15.82
2023-04-29T17:18:24.994Z,15.84
2023-04-29T17:20:54.788Z,15.68
2023-04-29T17:23:21.207Z,15.69
2023-04-29T17:25:47.728Z,15.37
2023-04-29T17:28:14.272Z,15.38
2023-04-29T17:30:40.816Z,15.39
2023-04-29T17:33:07.319Z,15.11
2023-04-29T17:35:34.832Z,15.28
2023-04-29T17:38:01.384Z,15.23
2023-04-29T17:40:28.588Z,14.96
2023-04-29T17:42:55.151Z,14.75
2023-04-29T17:45:21.732Z,14.75
2023-04-29T17:47:48.380Z,14.80
2023-04-29T17:50:15.245Z,14.71
2023-04-29T17:52:41.981Z,14.64
2023-04-29T17:55:08.997Z,14.58
2023-04-29T17:57:36.506Z,14.60
2023-04-29T18:00:03.488Z,14.56
2023-04-29T18:02:30.262Z,14.47
2023-04-29T18:04:56.637Z,14.40
2023-04-29T18:07:23.146Z,14.20
2023-04-29T18:09:49.632Z,14.23
2023-04-29T18:12:16.053Z,14.16
2023-04-29T18:14:42.602Z,14.08
2023-04-29T18:17:09.106Z,13.92
2023-04-29T18:19:35.628Z,13.68
2023-04-29T18:22:02.738Z,13.51
2023-04-29T18:24:29.390Z,13.29
2023-04-29T18:26:57.506Z,13.09
2023-04-29T18:29:26.454Z,12.74
2023-04-29T18:31:54.692Z,12.67
2023-04-29T18:34:21.299Z,12.53
2023-04-29T18:36:47.700Z,11.98
2023-04-29T18:39:14.197Z,12.20
2023-04-29T18:41:40.743Z,11.79
2023-04-29T18:44:07.248Z,11.91
2023-04-29T18:46:33.798Z,11.79
2023-04-29T18:49:00.263Z,11.70
2023-04-29T18:51:26.772Z,11.56
2023-04-29T18:53:53.563Z,11.42
2023-04-29T18:56:19.989Z,11.37
2023-04-29T18:58:46.553Z,11.22
2023-04-29T19:01:12.986Z,11.17
2023-04-29T19:03:40.293Z,10.89
2023-04-29T19:06:06.781Z,10.81
2023-04-29T19:08:33.212Z,10.93
2023-04-29T19:11:00.776Z,10.49
2023-04-29T19:13:27.750Z,10.52
2023-04-29T19:15:55.068Z,10.38
2023-04-29T19:18:23.113Z,10.61
2023-04-29T19:20:50.253Z,10.66
2023-04-29T19:23:16.742Z,10.54
2023-04-29T19:25:43.982Z,10.50
2023-04-29T19:28:10.461Z,10.50
2023-04-29T19:30:37.380Z,10.42
2023-04-29T19:33:04.218Z,10.16
2023-04-29T19:35:30.826Z,10.34
2023-04-29T19:37:57.574Z,10.29
2023-04-29T19:40:24.323Z,10.27
2023-04-29T19:42:50.817Z,10.06
2023-04-29T19:45:17.346Z,10.16
2023-04-29T19:47:44.125Z,9.99
2023-04-29T19:50:10.830Z,10.11
2023-04-29T19:52:37.275Z,10.05
2023-04-29T19:55:04.800Z,10.00
2023-04-29T19:57:39.054Z,9.90
2023-04-29T20:00:06.346Z,9.91
2023-04-29T20:02:33.241Z,9.88
2023-04-29T20:04:59.876Z,9.84
2023-04-29T20:07:26.286Z,9.78
2023-04-29T20:09:53.287Z,9.73
2023-04-29T20:12:19.920Z,9.47
2023-04-29T20:14:46.759Z,9.63
2023-04-29T20:17:13.560Z,9.58
2023-04-29T20:19:40.072Z,9.56
2023-04-29T20:22:06.492Z,9.47
2023-04-29T20:24:32.912Z,9.45
2023-04-29T20:26:59.325Z,9.42
2023-04-29T20:29:27.098Z,9.39
2023-04-29T20:31:53.543Z,9.37
2023-04-29T20:34:20.049Z,9.25
2023-04-29T20:36:46.709Z,9.29
2023-04-29T20:39:13.318Z,9.06
2023-04-29T20:41:39.914Z,9.21
2023-04-29T20:44:06.301Z,9.14
2023-04-29T20:46:32.908Z,9.03
2023-04-29T20:48:59.445Z,9.06
2023-04-29T20:51:26.721Z,9.02
2023-04-29T20:53:53.260Z,8.97
2023-04-29T20:56:19.682Z,8.94
2023-04-29T20:58:46.237Z,8.89
2023-04-29T21:01:12.887Z,8.81
2023-04-29T21:03:39.471Z,8.80
2023-04-29T21:06:06.012Z,8.77
2023-04-29T21:08:32.552Z,8.75
2023-04-29T21:10:58.969Z,8.74
2023-04-29T21:13:25.961Z,8.61
2023-04-29T21:15:52.505Z,8.64
2023-04-29T21:18:19.187Z,8.63
2023-04-29T21:20:46.276Z,8.55
2023-04-29T21:23:12.761Z,8.54
2023-04-29T21:25:39.217Z,8.39
2023-04-29T21:28:05.639Z,8.46
2023-04-29T21:30:32.046Z,8.12
2023-04-29T21:32:58.533Z,8.37
2023-04-29T21:35:26.321Z,8.30
2023-04-29T21:37:52.837Z,8.18
2023-04-29T21:40:19.383Z,7.93
2023-04-29T21:42:46.380Z,8.04
2023-04-29T21:45:17.710Z,8.16
2023-04-29T21:47:45.012Z,8.11
2023-04-29T21:50:11.899Z,8.02
2023-04-29T21:52:38.600Z,8.03
2023-04-29T21:55:05.587Z,7.98
2023-04-29T21:57:43.614Z,7.93
2023-04-29T22:00:28.214Z,7.89
2023-04-29T22:02:54.663Z,7.49
2023-04-29T22:05:21.084Z,7.76
2023-04-29T22:07:47.471Z,7.70
2023-04-29T22:10:13.860Z,7.66
2023-04-29T22:12:40.301Z,7.44
2023-04-29T22:15:09.124Z,7.56
2023-04-29T22:17:40.572Z,7.51
2023-04-29T22:20:07.924Z,7.40
2023-04-29T22:22:34.340Z,7.38
2023-04-29T22:25:00.888Z,7.36
2023-04-29T22:27:27.384Z,7.30
2023-04-29T22:29:54.352Z,6.99
2023-04-29T22:32:21.223Z,7.07
2023-04-29T22:34:47.700Z,7.16
2023-04-29T22:37:14.557Z,7.11
2023-04-29T22:39:41.057Z,7.07
2023-04-29T22:42:07.519Z,7.01
2023-04-29T22:44:33.978Z,6.96
2023-04-29T22:47:01.076Z,6.60
2023-04-29T22:49:27.662Z,6.65
2023-04-29T22:51:54.073Z,6.59
2023-04-29T22:54:21.121Z,6.77
2023-04-29T22:56:47.731Z,6.72
2023-04-29T22:59:14.485Z,6.65
2023-04-29T23:01:41.104Z,6.53
2023-04-29T23:04:08.043Z,6.50
2023-04-29T23:06:35.266Z,6.45
2023-04-29T23:09:01.755Z,6.42
2023-04-29T23:11:28.774Z,6.28
2023-04-29T23:13:55.477Z,6.28
2023-04-29T23:16:22.272Z,5.87
2023-04-29T23:18:49.419Z,6.15
2023-04-29T23:21:15.894Z,6.08
2023-04-29T23:23:42.450Z,6.01
2023-04-29T23:26:09.084Z,5.90
2023-04-29T23:28:35.494Z,5.87
2023-04-29T23:31:01.964Z,5.78
2023-04-29T23:33:28.386Z,5.51
2023-04-29T23:35:54.804Z,5.58
2023-04-29T23:38:21.337Z,5.61
2023-04-29T23:40:47.921Z,5.55
2023-04-29T23:43:17.297Z,5.44
2023-04-29T23:45:45.115Z,5.38
2023-04-29T23:48:12.276Z,5.36
2023-04-29T23:50:38.717Z,5.33
2023-04-29T23:53:05.131Z,5.24
2023-04-29T23:55:32.396Z,5.22
2023-04-29T23:57:58.784Z,5.19
